Loutro — 9HA2556 — position and weather

sailwx.info

Track history (hours):
 
Tides and Currents Weather Stations Pressure Air Temp Water Temp Dewpoint Dewpoint Depression Visibility Wind Speed Wind Dir Waves Ship Positions

Loutro

Last reported at 2017-Sep-21 19:23 UTC. Time now 2017-Sep-22 01:16 UTC.
Position N 37°55' E 023°06'.

Length 89 m; draft 4.8 m.

Type: Tanker. MMSI: 248870000.

Date/timePositionNaut miles runAvg speedWind from/ knotsBaromVisibWave heightAir tempDewpointWater temp
2017-Sep-21 19:23N 37°55' E 023°06'0 0.0
2017-Sep-21 10:02N 37°55' E 023°06'0 0.1
2017-Sep-21 09:50N 37°55' E 023°06'0 0.0
2017-Sep-21 09:14N 37°55' E 023°06'0 0.0
2017-Sep-21 07:56N 37°55' E 023°06'0 0.0
2017-Sep-21 04:02N 37°55' E 023°06'0 0.0
2017-Sep-21 03:50N 37°55' E 023°06'0 0.0
2017-Sep-21 03:26N 37°55' E 023°06'0 0.0
2017-Sep-21 01:00N 37°55' E 023°06'0 0.0
2017-Sep-21 00:26N 37°55' E 023°06'0 0.0
2017-Sep-20 23:56N 37°55' E 023°06'0 0.0
2017-Sep-20 23:24N 37°55' E 023°06'0 0.0
2017-Sep-20 22:54N 37°55' E 023°06'0 0.0
2017-Sep-20 22:28N 37°55' E 023°06'0 0.0
2017-Sep-20 21:51N 37°55' E 023°06'0 0.0
2017-Sep-20 21:22N 37°55' E 023°06'0 0.0
2017-Sep-20 20:57N 37°55' E 023°06'0 0.0
2017-Sep-20 20:24N 37°55' E 023°06'0 0.0
2017-Sep-20 19:58N 37°55' E 023°06'0 0.0
2017-Sep-20 19:29N 37°55' E 023°06'0 0.0
2017-Sep-20 18:58N 37°55' E 023°06'0 0.0
2017-Sep-20 18:23N 37°55' E 023°06'0 0.0
2017-Sep-20 17:57N 37°55' E 023°06'0 0.1
2017-Sep-20 17:30N 37°55' E 023°06'1 2.1
2017-Sep-20 17:00N 37°54' E 023°07'5 9.3
2017-Sep-20 16:30N 37°53' E 023°13'4 8.8
2017-Sep-20 16:00N 37°52' E 023°18'4 9.0
2017-Sep-20 15:30N 37°51' E 023°24'5 9.3
2017-Sep-20 15:00N 37°50' E 023°30'9 9.4
2017-Sep-20 14:00N 37°47' E 023°41'5 9.9
2017-Sep-20 13:30N 37°43' E 023°44'5 9.2
2017-Sep-20 13:00N 37°40' E 023°48'5 9.4
2017-Sep-20 12:30N 37°38' E 023°54'65 8.2
2017-Sep-20 04:29N 38°25' E 024°52'5 9.0
2017-Sep-20 03:59N 38°29' E 024°54'15 9.5
2017-Sep-20 02:25N 38°42' E 025°02'67 6.7
2017-Sep-19 16:25N 39°42' E 025°40'7 9.4
2017-Sep-19 15:40N 39°49' E 025°44'2 9.9
2017-Sep-19 15:30N 39°50' E 025°45'510.1
2017-Sep-19 15:00N 39°54' E 025°50'510.0
2017-Sep-19 14:30N 39°57' E 025°54'11 9.1
2017-Sep-19 13:20N 40°02' E 026°07'96 9.3
2017-Sep-19 03:01N 40°49' E 027°57'4 9.6
2017-Sep-19 02:34N 40°49' E 028°03'1 9.6
2017-Sep-19 02:28N 40°49' E 028°04'4 9.5
2017-Sep-19 02:00N 40°50' E 028°10'4 9.0
2017-Sep-19 01:31N 40°46' E 028°14'5 9.1
2017-Sep-19 00:54N 40°45' E 028°21'4 9.8
2017-Sep-19 00:30N 40°45' E 028°26'2310.0
2017-Sep-18 22:14N 40°47' E 028°56'2 9.8
2017-Sep-18 22:00N 40°46' E 028°59'16 9.5
2017-Sep-18 20:22N 40°44' E 029°19'83 1.9
2017-Sep-17 01:08N 40°40' E 027°30'2 8.9
2017-Sep-17 00:53N 40°39' E 027°27'11 8.7
2017-Sep-16 23:40N 40°35' E 027°15'2 8.8
2017-Sep-16 23:27N 40°34' E 027°12'4 8.6
2017-Sep-16 23:00N 40°33' E 027°07'6 8.6
2017-Sep-16 22:14N 40°30' E 026°60'2 8.5
2017-Sep-16 22:00N 40°29' E 026°57'53 7.3
2017-Sep-16 14:45N 39°59' E 026°01'45 5.2
2017-Sep-16 06:13N 39°22' E 025°28'2 8.5
2017-Sep-16 06:00N 39°21' E 025°27'4 8.6
2017-Sep-16 05:30N 39°17' E 025°24'8 8.6
2017-Sep-16 04:34N 39°09' E 025°20'1 8.7
2017-Sep-16 04:30N 39°09' E 025°19'111 8.6
2017-Sep-15 15:35N 37°37' E 024°01'1 9.3
2017-Sep-15 15:30N 37°37' E 024°00'5 9.2
2017-Sep-15 15:00N 37°37' E 023°55'4 9.0
2017-Sep-15 14:31N 37°38' E 023°49'4 8.9
2017-Sep-15 14:00N 37°39' E 023°44'4 8.8
2017-Sep-15 13:31N 37°42' E 023°40'5 9.0
2017-Sep-15 13:00N 37°46' E 023°38'4 8.5
2017-Sep-15 12:30N 37°49' E 023°34'5 9.4
2017-Sep-15 12:00N 37°50' E 023°28'5 9.4
2017-Sep-15 11:30N 37°51' E 023°22'5 9.6
2017-Sep-15 11:01N 37°52' E 023°16'5 9.3
2017-Sep-15 10:30N 37°53' E 023°11'4 7.5
2017-Sep-15 09:54N 37°55' E 023°05'0 0.0
2017-Sep-14 09:24N 37°55' E 023°05'0 0.0
2017-Sep-14 09:01N 37°55' E 023°05'1 1.7
2017-Sep-14 08:27N 37°55' E 023°06'0 0.1
2017-Sep-14 08:00N 37°55' E 023°06'0 0.0
2017-Sep-14 07:27N 37°55' E 023°06'0 0.0
2017-Sep-14 06:57N 37°55' E 023°06'0 0.0
2017-Sep-14 06:30N 37°55' E 023°06'0 0.0
2017-Sep-14 06:00N 37°55' E 023°06'0 0.1
2017-Sep-14 05:30N 37°55' E 023°06'0 0.1
2017-Sep-14 04:57N 37°55' E 023°06'0 0.0
2017-Sep-14 04:30N 37°55' E 023°06'0 0.0
2017-Sep-14 04:00N 37°55' E 023°06'0 0.1
2017-Sep-14 03:30N 37°55' E 023°06'0 0.0
2017-Sep-14 02:48N 37°55' E 023°06'0 0.0
2017-Sep-14 02:30N 37°55' E 023°06'0 0.0
2017-Sep-14 02:00N 37°55' E 023°06'0 0.0
2017-Sep-14 01:27N 37°55' E 023°06'0 0.0
2017-Sep-14 01:00N 37°55' E 023°06'0 0.0
2017-Sep-14 00:30N 37°55' E 023°06'0 0.0
2017-Sep-14 00:00N 37°55' E 023°06'0 0.0
2017-Sep-13 23:27N 37°55' E 023°06'0 0.0
2017-Sep-13 22:45N 37°55' E 023°06'0 0.0
2017-Sep-13 20:12N 37°55' E 023°06'0 0.1
2017-Sep-13 20:00N 37°55' E 023°06'0 0.0
2017-Sep-13 13:48N 37°55' E 023°06'0 0.2
2017-Sep-13 13:30N 37°55' E 023°06'0 0.1
2017-Sep-13 13:00N 37°55' E 023°06'0 0.0
2017-Sep-13 12:30N 37°55' E 023°06'0 0.0
2017-Sep-13 11:57N 37°55' E 023°06'0 0.0
2017-Sep-13 11:30N 37°55' E 023°06'0 0.0
2017-Sep-13 11:00N 37°55' E 023°06'0 0.0
2017-Sep-13 10:31N 37°55' E 023°06'0 0.0
2017-Sep-13 10:00N 37°55' E 023°06'0 0.0
2017-Sep-13 09:30N 37°55' E 023°06'0 0.0
2017-Sep-13 09:00N 37°55' E 023°06'2 4.5
2017-Sep-13 08:30N 37°54' E 023°09'4 9.0
2017-Sep-13 08:00N 37°53' E 023°15'4 8.9
2017-Sep-13 07:30N 37°52' E 023°20'4 8.8
2017-Sep-13 07:00N 37°52' E 023°26'5 9.1
2017-Sep-13 06:30N 37°53' E 023°31'4 8.4
2017-Sep-13 06:01N 37°55' E 023°35'2 3.0
2017-Sep-13 05:17N 37°57' E 023°35'0 0.0
2017-Sep-13 04:56N 37°57' E 023°35'0 0.0
2017-Sep-12 22:02N 37°57' E 023°35'0 0.0
2017-Sep-12 21:50N 37°57' E 023°35'0 0.0
2017-Sep-12 21:29N 37°57' E 023°35'0 0.0
2017-Sep-12 20:41N 37°57' E 023°35'0 0.0
2017-Sep-12 20:23N 37°57' E 023°35'0 0.0
2017-Sep-12 19:53N 37°57' E 023°35'0 0.0
2017-Sep-12 19:26N 37°57' E 023°35'0 0.0
2017-Sep-12 18:50N 37°57' E 023°35'0 0.0
2017-Sep-12 18:26N 37°57' E 023°35'0 0.0
2017-Sep-12 17:59N 37°57' E 023°35'0 0.0
2017-Sep-12 17:26N 37°57' E 023°35'0 0.0
2017-Sep-12 16:53N 37°57' E 023°35'0 0.0
2017-Sep-12 16:23N 37°57' E 023°35'0 0.0
2017-Sep-12 15:59N 37°57' E 023°35'0 0.0
2017-Sep-12 15:29N 37°57' E 023°35'0 0.0
2017-Sep-12 14:59N 37°57' E 023°35'0 0.0
2017-Sep-12 14:29N 37°57' E 023°35'0 0.0
2017-Sep-12 13:59N 37°57' E 023°35'0 0.0
2017-Sep-12 13:29N 37°57' E 023°35'0 0.0
2017-Sep-12 12:56N 37°57' E 023°35'0 0.0
2017-Sep-12 12:20N 37°57' E 023°35'0 0.0
2017-Sep-12 11:59N 37°57' E 023°35'0 0.0
2017-Sep-12 11:29N 37°57' E 023°35'0 0.0
2017-Sep-12 10:59N 37°57' E 023°35'0 0.0
2017-Sep-12 10:29N 37°57' E 023°35'0 0.0
2017-Sep-12 09:59N 37°57' E 023°35'0 0.0
2017-Sep-12 09:26N 37°57' E 023°35'0 0.0
2017-Sep-12 08:59N 37°57' E 023°35'0 0.0
2017-Sep-12 08:29N 37°57' E 023°35'0 0.0
2017-Sep-12 07:53N 37°57' E 023°35'0 0.0
2017-Sep-12 07:29N 37°57' E 023°35'0 0.0
2017-Sep-12 06:53N 37°57' E 023°35'0 0.0
2017-Sep-12 06:29N 37°57' E 023°35'0 0.0
2017-Sep-12 05:56N 37°57' E 023°35'0 0.0
2017-Sep-12 05:29N 37°57' E 023°35'0 0.0
2017-Sep-12 04:44N 37°57' E 023°35'0 0.0
2017-Sep-12 04:29N 37°57' E 023°35'0 0.0
2017-Sep-12 03:59N 37°57' E 023°35'0 0.0
2017-Sep-12 03:29N 37°57' E 023°35'0 0.0
2017-Sep-12 02:59N 37°57' E 023°35'0 0.0
2017-Sep-12 02:23N 37°57' E 023°35'0 0.0
2017-Sep-12 01:59N 37°57' E 023°35'0 0.0
2017-Sep-12 01:29N 37°57' E 023°35'0 0.0
2017-Sep-12 00:59N 37°57' E 023°35'0 0.0
2017-Sep-12 00:23N 37°57' E 023°35'0 0.0
2017-Sep-11 23:53N 37°57' E 023°35'0 0.0
2017-Sep-11 23:29N 37°57' E 023°35'0 0.0
2017-Sep-11 22:59N 37°57' E 023°35'0 0.0
2017-Sep-11 22:29N 37°57' E 023°35'0 0.0
2017-Sep-11 21:59N 37°57' E 023°35'0 0.0
2017-Sep-11 21:29N 37°57' E 023°35'0 0.0
2017-Sep-11 20:59N 37°57' E 023°35'0 0.0
2017-Sep-11 20:20N 37°57' E 023°35'0 0.0
2017-Sep-11 19:59N 37°57' E 023°35'0 0.0
2017-Sep-11 19:29N 37°57' E 023°35'  
Track history (hours):
 
Tides and Currents Weather Stations Pressure Air Temp Water Temp Dewpoint Dewpoint Depression Visibility Wind Speed Wind Dir Waves Ship Positions

Loutro

Last reported at 2017-Sep-21 19:23 UTC. Time now 2017-Sep-22 01:16 UTC.
Position N 37°55' E 023°06'.

Length 89 m; draft 4.8 m.

Type: Tanker. MMSI: 248870000.

Date/timePositionNaut miles runAvg speedWind from/ knotsBaromVisibWave heightAir tempDewpointWater temp
2017-Sep-21 19:23N 37°55' E 023°06'0 0.0
2017-Sep-21 10:02N 37°55' E 023°06'0 0.1
2017-Sep-21 09:50N 37°55' E 023°06'0 0.0
2017-Sep-21 09:14N 37°55' E 023°06'0 0.0
2017-Sep-21 07:56N 37°55' E 023°06'0 0.0
2017-Sep-21 04:02N 37°55' E 023°06'0 0.0
2017-Sep-21 03:50N 37°55' E 023°06'0 0.0
2017-Sep-21 03:26N 37°55' E 023°06'0 0.0
2017-Sep-21 01:00N 37°55' E 023°06'0 0.0
2017-Sep-21 00:26N 37°55' E 023°06'0 0.0
2017-Sep-20 23:56N 37°55' E 023°06'0 0.0
2017-Sep-20 23:24N 37°55' E 023°06'0 0.0
2017-Sep-20 22:54N 37°55' E 023°06'0 0.0
2017-Sep-20 22:28N 37°55' E 023°06'0 0.0
2017-Sep-20 21:51N 37°55' E 023°06'0 0.0
2017-Sep-20 21:22N 37°55' E 023°06'0 0.0
2017-Sep-20 20:57N 37°55' E 023°06'0 0.0
2017-Sep-20 20:24N 37°55' E 023°06'0 0.0
2017-Sep-20 19:58N 37°55' E 023°06'0 0.0
2017-Sep-20 19:29N 37°55' E 023°06'0 0.0
2017-Sep-20 18:58N 37°55' E 023°06'0 0.0
2017-Sep-20 18:23N 37°55' E 023°06'0 0.0
2017-Sep-20 17:57N 37°55' E 023°06'0 0.1
2017-Sep-20 17:30N 37°55' E 023°06'1 2.1
2017-Sep-20 17:00N 37°54' E 023°07'5 9.3
2017-Sep-20 16:30N 37°53' E 023°13'4 8.8
2017-Sep-20 16:00N 37°52' E 023°18'4 9.0
2017-Sep-20 15:30N 37°51' E 023°24'5 9.3
2017-Sep-20 15:00N 37°50' E 023°30'9 9.4
2017-Sep-20 14:00N 37°47' E 023°41'5 9.9
2017-Sep-20 13:30N 37°43' E 023°44'5 9.2
2017-Sep-20 13:00N 37°40' E 023°48'5 9.4
2017-Sep-20 12:30N 37°38' E 023°54'65 8.2
2017-Sep-20 04:29N 38°25' E 024°52'5 9.0
2017-Sep-20 03:59N 38°29' E 024°54'15 9.5
2017-Sep-20 02:25N 38°42' E 025°02'67 6.7
2017-Sep-19 16:25N 39°42' E 025°40'7 9.4
2017-Sep-19 15:40N 39°49' E 025°44'2 9.9
2017-Sep-19 15:30N 39°50' E 025°45'510.1
2017-Sep-19 15:00N 39°54' E 025°50'510.0
2017-Sep-19 14:30N 39°57' E 025°54'11 9.1
2017-Sep-19 13:20N 40°02' E 026°07'96 9.3
2017-Sep-19 03:01N 40°49' E 027°57'4 9.6
2017-Sep-19 02:34N 40°49' E 028°03'1 9.6
2017-Sep-19 02:28N 40°49' E 028°04'4 9.5
2017-Sep-19 02:00N 40°50' E 028°10'4 9.0
2017-Sep-19 01:31N 40°46' E 028°14'5 9.1
2017-Sep-19 00:54N 40°45' E 028°21'4 9.8
2017-Sep-19 00:30N 40°45' E 028°26'2310.0
2017-Sep-18 22:14N 40°47' E 028°56'2 9.8
2017-Sep-18 22:00N 40°46' E 028°59'16 9.5
2017-Sep-18 20:22N 40°44' E 029°19'83 1.9
2017-Sep-17 01:08N 40°40' E 027°30'2 8.9
2017-Sep-17 00:53N 40°39' E 027°27'11 8.7
2017-Sep-16 23:40N 40°35' E 027°15'2 8.8
2017-Sep-16 23:27N 40°34' E 027°12'4 8.6
2017-Sep-16 23:00N 40°33' E 027°07'6 8.6
2017-Sep-16 22:14N 40°30' E 026°60'2 8.5
2017-Sep-16 22:00N 40°29' E 026°57'53 7.3
2017-Sep-16 14:45N 39°59' E 026°01'45 5.2
2017-Sep-16 06:13N 39°22' E 025°28'2 8.5
2017-Sep-16 06:00N 39°21' E 025°27'4 8.6
2017-Sep-16 05:30N 39°17' E 025°24'8 8.6
2017-Sep-16 04:34N 39°09' E 025°20'1 8.7
2017-Sep-16 04:30N 39°09' E 025°19'111 8.6
2017-Sep-15 15:35N 37°37' E 024°01'1 9.3
2017-Sep-15 15:30N 37°37' E 024°00'5 9.2
2017-Sep-15 15:00N 37°37' E 023°55'4 9.0
2017-Sep-15 14:31N 37°38' E 023°49'4 8.9
2017-Sep-15 14:00N 37°39' E 023°44'4 8.8
2017-Sep-15 13:31N 37°42' E 023°40'5 9.0
2017-Sep-15 13:00N 37°46' E 023°38'4 8.5
2017-Sep-15 12:30N 37°49' E 023°34'5 9.4
2017-Sep-15 12:00N 37°50' E 023°28'5 9.4
2017-Sep-15 11:30N 37°51' E 023°22'5 9.6
2017-Sep-15 11:01N 37°52' E 023°16'5 9.3
2017-Sep-15 10:30N 37°53' E 023°11'4 7.5
2017-Sep-15 09:54N 37°55' E 023°05'0 0.0
2017-Sep-14 09:24N 37°55' E 023°05'0 0.0
2017-Sep-14 09:01N 37°55' E 023°05'1 1.7
2017-Sep-14 08:27N 37°55' E 023°06'0 0.1
2017-Sep-14 08:00N 37°55' E 023°06'0 0.0
2017-Sep-14 07:27N 37°55' E 023°06'0 0.0
2017-Sep-14 06:57N 37°55' E 023°06'0 0.0
2017-Sep-14 06:30N 37°55' E 023°06'0 0.0
2017-Sep-14 06:00N 37°55' E 023°06'0 0.1
2017-Sep-14 05:30N 37°55' E 023°06'0 0.1
2017-Sep-14 04:57N 37°55' E 023°06'0 0.0
2017-Sep-14 04:30N 37°55' E 023°06'0 0.0
2017-Sep-14 04:00N 37°55' E 023°06'0 0.1
2017-Sep-14 03:30N 37°55' E 023°06'0 0.0
2017-Sep-14 02:48N 37°55' E 023°06'0 0.0
2017-Sep-14 02:30N 37°55' E 023°06'0 0.0
2017-Sep-14 02:00N 37°55' E 023°06'0 0.0
2017-Sep-14 01:27N 37°55' E 023°06'0 0.0
2017-Sep-14 01:00N 37°55' E 023°06'0 0.0
2017-Sep-14 00:30N 37°55' E 023°06'0 0.0
2017-Sep-14 00:00N 37°55' E 023°06'0 0.0
2017-Sep-13 23:27N 37°55' E 023°06'0 0.0
2017-Sep-13 22:45N 37°55' E 023°06'0 0.0
2017-Sep-13 20:12N 37°55' E 023°06'0 0.1
2017-Sep-13 20:00N 37°55' E 023°06'0 0.0
2017-Sep-13 13:48N 37°55' E 023°06'0 0.2
2017-Sep-13 13:30N 37°55' E 023°06'0 0.1
2017-Sep-13 13:00N 37°55' E 023°06'0 0.0
2017-Sep-13 12:30N 37°55' E 023°06'0 0.0
2017-Sep-13 11:57N 37°55' E 023°06'0 0.0
2017-Sep-13 11:30N 37°55' E 023°06'0 0.0
2017-Sep-13 11:00N 37°55' E 023°06'0 0.0
2017-Sep-13 10:31N 37°55' E 023°06'0 0.0
2017-Sep-13 10:00N 37°55' E 023°06'0 0.0
2017-Sep-13 09:30N 37°55' E 023°06'0 0.0
2017-Sep-13 09:00N 37°55' E 023°06'2 4.5
2017-Sep-13 08:30N 37°54' E 023°09'4 9.0
2017-Sep-13 08:00N 37°53' E 023°15'4 8.9
2017-Sep-13 07:30N 37°52' E 023°20'4 8.8
2017-Sep-13 07:00N 37°52' E 023°26'5 9.1
2017-Sep-13 06:30N 37°53' E 023°31'4 8.4
2017-Sep-13 06:01N 37°55' E 023°35'2 3.0
2017-Sep-13 05:17N 37°57' E 023°35'0 0.0
2017-Sep-13 04:56N 37°57' E 023°35'0 0.0
2017-Sep-12 22:02N 37°57' E 023°35'0 0.0
2017-Sep-12 21:50N 37°57' E 023°35'0 0.0
2017-Sep-12 21:29N 37°57' E 023°35'0 0.0
2017-Sep-12 20:41N 37°57' E 023°35'0 0.0
2017-Sep-12 20:23N 37°57' E 023°35'0 0.0
2017-Sep-12 19:53N 37°57' E 023°35'0 0.0
2017-Sep-12 19:26N 37°57' E 023°35'0 0.0
2017-Sep-12 18:50N 37°57' E 023°35'0 0.0
2017-Sep-12 18:26N 37°57' E 023°35'0 0.0
2017-Sep-12 17:59N 37°57' E 023°35'0 0.0
2017-Sep-12 17:26N 37°57' E 023°35'0 0.0
2017-Sep-12 16:53N 37°57' E 023°35'0 0.0
2017-Sep-12 16:23N 37°57' E 023°35'0 0.0
2017-Sep-12 15:59N 37°57' E 023°35'0 0.0
2017-Sep-12 15:29N 37°57' E 023°35'0 0.0
2017-Sep-12 14:59N 37°57' E 023°35'0 0.0
2017-Sep-12 14:29N 37°57' E 023°35'0 0.0
2017-Sep-12 13:59N 37°57' E 023°35'0 0.0
2017-Sep-12 13:29N 37°57' E 023°35'0 0.0
2017-Sep-12 12:56N 37°57' E 023°35'0 0.0
2017-Sep-12 12:20N 37°57' E 023°35'0 0.0
2017-Sep-12 11:59N 37°57' E 023°35'0 0.0
2017-Sep-12 11:29N 37°57' E 023°35'0 0.0
2017-Sep-12 10:59N 37°57' E 023°35'0 0.0
2017-Sep-12 10:29N 37°57' E 023°35'0 0.0
2017-Sep-12 09:59N 37°57' E 023°35'0 0.0
2017-Sep-12 09:26N 37°57' E 023°35'0 0.0
2017-Sep-12 08:59N 37°57' E 023°35'0 0.0
2017-Sep-12 08:29N 37°57' E 023°35'0 0.0
2017-Sep-12 07:53N 37°57' E 023°35'0 0.0
2017-Sep-12 07:29N 37°57' E 023°35'0 0.0
2017-Sep-12 06:53N 37°57' E 023°35'0 0.0
2017-Sep-12 06:29N 37°57' E 023°35'0 0.0
2017-Sep-12 05:56N 37°57' E 023°35'0 0.0
2017-Sep-12 05:29N 37°57' E 023°35'0 0.0
2017-Sep-12 04:44N 37°57' E 023°35'0 0.0
2017-Sep-12 04:29N 37°57' E 023°35'0 0.0
2017-Sep-12 03:59N 37°57' E 023°35'0 0.0
2017-Sep-12 03:29N 37°57' E 023°35'0 0.0
2017-Sep-12 02:59N 37°57' E 023°35'0 0.0
2017-Sep-12 02:23N 37°57' E 023°35'0 0.0
2017-Sep-12 01:59N 37°57' E 023°35'0 0.0
2017-Sep-12 01:29N 37°57' E 023°35'0 0.0
2017-Sep-12 00:59N 37°57' E 023°35'0 0.0
2017-Sep-12 00:23N 37°57' E 023°35'0 0.0
2017-Sep-11 23:53N 37°57' E 023°35'0 0.0
2017-Sep-11 23:29N 37°57' E 023°35'0 0.0
2017-Sep-11 22:59N 37°57' E 023°35'0 0.0
2017-Sep-11 22:29N 37°57' E 023°35'0 0.0
2017-Sep-11 21:59N 37°57' E 023°35'0 0.0
2017-Sep-11 21:29N 37°57' E 023°35'0 0.0
2017-Sep-11 20:59N 37°57' E 023°35'0 0.0
2017-Sep-11 20:20N 37°57' E 023°35'0 0.0
2017-Sep-11 19:59N 37°57' E 023°35'0 0.0
2017-Sep-11 19:29N 37°57' E 023°35'  

Dump ship's entire track history